createdAt,value
2023-02-08T00:00:17.820Z,14.35
2023-02-08T00:05:22.809Z,13.90
2023-02-08T00:10:26.692Z,14.13
2023-02-08T00:15:30.342Z,13.75
2023-02-08T00:20:35.074Z,14.20
2023-02-08T00:25:38.607Z,14.13
2023-02-08T00:30:43.464Z,14.75
2023-02-08T00:35:48.586Z,14.60
2023-02-08T00:40:52.068Z,14.00
2023-02-08T00:45:56.558Z,13.68
2023-02-08T00:51:04.951Z,14.73
2023-02-08T00:56:09.117Z,14.90
2023-02-08T01:01:13.722Z,15.10
2023-02-08T01:06:19.439Z,14.68
2023-02-08T01:11:26.072Z,14.93
2023-02-08T01:16:33.030Z,14.85
2023-02-08T01:21:40.590Z,15.65
2023-02-08T01:26:43.993Z,14.90
2023-02-08T01:31:47.604Z,14.77
2023-02-08T01:36:52.399Z,14.65
2023-02-08T01:41:55.991Z,15.52
2023-02-08T01:46:59.260Z,15.07
2023-02-08T01:52:07.780Z,14.50
2023-02-08T01:57:11.960Z,14.65
2023-02-08T02:02:18.932Z,14.47
2023-02-08T02:07:29.409Z,15.70
2023-02-08T02:12:34.270Z,15.25
2023-02-08T02:17:38.741Z,15.70
2023-02-08T02:23:18.756Z,15.23
2023-02-08T02:29:01.426Z,14.40
2023-02-08T02:34:11.771Z,14.10
2023-02-08T02:39:22.043Z,14.50
2023-02-08T02:44:35.011Z,14.32
2023-02-08T02:49:49.234Z,15.07
2023-02-08T02:54:54.314Z,14.63
2023-02-08T02:59:59.550Z,14.48
2023-02-08T03:05:07.154Z,14.35
2023-02-08T03:10:26.066Z,13.95
2023-02-08T03:15:36.549Z,13.98
2023-02-08T03:20:44.228Z,14.18
2023-02-08T03:25:53.754Z,14.55
2023-02-08T03:31:06.767Z,13.60
2023-02-08T03:36:18.143Z,14.82
2023-02-08T03:41:27.564Z,14.57
2023-02-08T03:46:35.088Z,14.88
2023-02-08T03:51:40.741Z,14.33
2023-02-08T03:56:48.324Z,13.73
2023-02-08T04:01:56.838Z,14.38
2023-02-08T04:07:01.750Z,14.63
2023-02-08T04:12:05.608Z,15.17
2023-02-08T04:17:08.914Z,16.00
2023-02-08T04:22:13.623Z,17.73
2023-02-08T04:27:16.958Z,18.80
2023-02-08T04:32:20.271Z,19.00
2023-02-08T04:37:25.063Z,17.48
2023-02-08T04:42:28.444Z,17.27
2023-02-08T04:47:31.757Z,18.42
2023-02-08T04:52:36.480Z,16.90
2023-02-08T04:57:39.874Z,16.27
2023-02-08T05:02:43.284Z,17.98
2023-02-08T05:07:48.123Z,17.67
2023-02-08T05:12:51.613Z,16.10
2023-02-08T05:17:55.046Z,15.77
2023-02-08T05:22:59.793Z,16.00
2023-02-08T05:28:03.231Z,15.68
2023-02-08T05:33:06.591Z,16.80
2023-02-08T05:38:11.240Z,16.33
2023-02-08T05:43:14.526Z,15.43
2023-02-08T05:48:17.884Z,16.73
2023-02-08T05:53:22.636Z,15.80
2023-02-08T05:58:26.712Z,14.88
2023-02-08T06:03:30.110Z,15.25
2023-02-08T06:08:34.930Z,14.53
2023-02-08T06:13:39.265Z,12.98
2023-02-08T06:18:42.902Z,21.80
2023-02-08T06:23:47.611Z,14.90
2023-02-08T06:28:50.907Z,15.98
2023-02-08T06:33:54.267Z,16.00
2023-02-08T06:38:59.192Z,13.90
2023-02-08T06:44:02.678Z,15.65
2023-02-08T06:49:06.074Z,13.67
2023-02-08T06:54:11.125Z,13.20
2023-02-08T06:59:14.517Z,14.15
2023-02-08T07:04:17.846Z,13.30
2023-02-08T07:09:22.652Z,13.68
2023-02-08T07:14:26.084Z,12.95
2023-02-08T07:19:29.898Z,13.60
2023-02-08T07:24:35.247Z,13.15
2023-02-08T07:29:39.399Z,13.52
2023-02-08T07:34:42.775Z,12.77
2023-02-08T07:39:47.461Z,13.30
2023-02-08T07:44:50.832Z,14.30
2023-02-08T07:49:54.148Z,12.00
2023-02-08T07:54:58.922Z,11.65
2023-02-08T08:00:02.349Z,11.47
2023-02-08T08:05:15.412Z,9.75
2023-02-08T08:10:20.305Z,9.85
2023-02-08T08:15:23.623Z,9.25
2023-02-08T08:20:27.291Z,9.73
2023-02-08T08:25:32.033Z,11.05
2023-02-08T08:30:35.382Z,9.95
2023-02-08T08:35:38.915Z,12.65
2023-02-08T08:40:43.757Z,10.77
2023-02-08T08:45:47.192Z,11.43
2023-02-08T08:50:50.476Z,11.32
2023-02-08T08:55:55.177Z,11.43
2023-02-08T09:01:00.394Z,11.35
2023-02-08T09:06:03.942Z,10.55
2023-02-08T09:11:10.740Z,11.52
2023-02-08T09:16:16.338Z,13.15
2023-02-08T09:21:22.131Z,12.98
2023-02-08T09:26:26.933Z,13.82
2023-02-08T09:31:32.969Z,13.83
2023-02-08T09:36:38.844Z,13.53
2023-02-08T09:42:08.185Z,13.15
2023-02-08T09:47:17.402Z,14.10
2023-02-08T09:52:26.305Z,14.27
2023-02-08T09:57:35.578Z,15.13
2023-02-08T10:02:39.091Z,14.63
2023-02-08T10:07:43.978Z,15.17
2023-02-08T10:12:57.043Z,15.18
2023-02-08T10:18:26.256Z,15.27
2023-02-08T10:23:42.167Z,14.98
2023-02-08T10:29:08.690Z,14.82
2023-02-08T10:34:25.000Z,15.35
2023-02-08T10:39:35.504Z,15.32
2023-02-08T10:44:53.003Z,14.80
2023-02-08T10:50:02.643Z,14.20
2023-02-08T10:55:15.148Z,13.60
2023-02-08T11:00:22.432Z,11.30
2023-02-08T11:05:34.983Z,11.77
2023-02-08T11:10:39.073Z,12.13
2023-02-08T11:15:48.201Z,11.65
2023-02-08T11:20:54.586Z,11.95
2023-02-08T11:26:18.878Z,12.57
2023-02-08T11:31:23.528Z,11.75
2023-02-08T11:36:27.251Z,12.30
2023-02-08T11:41:31.199Z,11.65
2023-02-08T11:46:37.480Z,12.17
2023-02-08T11:51:41.051Z,11.07
2023-02-08T11:56:44.357Z,11.90
2023-02-08T12:01:49.067Z,10.75
2023-02-08T12:07:22.738Z,11.63
2023-02-08T12:12:32.670Z,10.80
2023-02-08T12:18:03.914Z,9.90
2023-02-08T12:23:36.147Z,10.07
2023-02-08T12:28:50.588Z,10.07
2023-02-08T12:34:05.244Z,11.10
2023-02-08T12:39:37.600Z,10.13
2023-02-08T12:44:51.542Z,9.90
2023-02-08T12:50:04.641Z,9.65
2023-02-08T12:55:18.289Z,9.57
2023-02-08T13:00:24.530Z,9.80
2023-02-08T13:05:34.639Z,9.07
2023-02-08T13:10:41.614Z,8.63
2023-02-08T13:15:50.485Z,9.27
2023-02-08T13:20:58.017Z,8.73
2023-02-08T13:26:07.391Z,8.80
2023-02-08T13:31:15.668Z,8.80
2023-02-08T13:36:25.931Z,8.95
2023-02-08T13:41:30.766Z,9.15
2023-02-08T13:46:39.724Z,8.60
2023-02-08T13:51:55.400Z,8.57
2023-02-08T13:56:59.423Z,8.63
2023-02-08T14:02:28.598Z,7.70
2023-02-08T14:07:44.551Z,7.67
2023-02-08T14:12:56.198Z,8.13
2023-02-08T14:18:01.261Z,7.03
2023-02-08T14:23:08.954Z,8.32
2023-02-08T14:28:26.793Z,9.07
2023-02-08T14:33:33.159Z,8.05
2023-02-08T14:44:56.119Z,9.82
2023-02-08T14:50:07.204Z,7.20
2023-02-08T14:55:17.504Z,7.50
2023-02-08T15:00:25.593Z,7.03
2023-02-08T15:05:31.313Z,7.27
2023-02-08T15:10:36.282Z,7.68
2023-02-08T15:15:44.085Z,7.30
2023-02-08T15:20:57.242Z,6.88
2023-02-08T15:26:02.184Z,7.18
2023-02-08T15:31:10.257Z,7.60
2023-02-08T15:36:18.954Z,8.00
2023-02-08T15:41:27.690Z,7.85
2023-02-08T15:46:33.207Z,8.60
2023-02-08T15:51:36.902Z,8.93
2023-02-08T15:56:42.559Z,7.50
2023-02-08T16:01:49.714Z,8.67
2023-02-08T16:06:55.712Z,7.10
2023-02-08T16:12:01.867Z,7.50
2023-02-08T16:27:31.784Z,7.87
2023-02-08T19:30:11.848Z,9.33
2023-02-08T19:35:16.545Z,8.80
2023-02-08T19:40:20.799Z,8.95
2023-02-08T19:45:25.232Z,9.43
2023-02-08T19:50:30.033Z,9.80
2023-02-08T19:55:33.550Z,8.73
2023-02-08T20:00:37.425Z,9.00
2023-02-08T20:05:42.490Z,8.82
2023-02-08T20:10:48.586Z,7.17
2023-02-08T20:15:51.949Z,6.30
2023-02-08T20:21:03.957Z,6.80
2023-02-08T20:26:09.842Z,7.35
2023-02-08T20:31:15.711Z,5.70
2023-02-08T20:36:22.156Z,3.97
2023-02-08T20:41:27.716Z,3.90
2023-02-08T20:46:33.840Z,4.53
2023-02-08T20:51:38.736Z,4.45
2023-02-08T20:56:42.085Z,1.73
2023-02-08T21:01:46.598Z,2.10
2023-02-08T21:06:52.536Z,1.43
2023-02-08T21:11:56.023Z,2.23
2023-02-08T21:16:59.676Z,3.13
2023-02-08T21:22:04.570Z,1.67
2023-02-08T21:27:07.989Z,2.67
2023-02-08T21:32:11.300Z,1.97
2023-02-08T21:37:16.298Z,2.20
2023-02-08T21:42:19.667Z,3.80
2023-02-08T21:47:23.027Z,2.87
2023-02-08T21:52:44.973Z,3.13
2023-02-08T21:57:48.324Z,3.27
2023-02-08T22:02:51.755Z,3.10
2023-02-08T22:07:58.317Z,2.87
2023-02-08T22:13:02.196Z,3.03
2023-02-08T22:18:06.297Z,2.30
2023-02-08T22:23:10.936Z,3.87
2023-02-08T22:28:14.974Z,3.07
2023-02-08T22:33:18.879Z,2.60
2023-02-08T22:38:23.641Z,2.73
2023-02-08T22:43:26.988Z,2.37
2023-02-08T22:48:30.692Z,2.77
2023-02-08T22:53:35.464Z,2.10
2023-02-08T22:58:38.755Z,2.70
2023-02-08T23:03:42.243Z,2.13
2023-02-08T23:08:48.220Z,2.23
2023-02-08T23:13:51.652Z,2.23
2023-02-08T23:18:55.299Z,2.47
2023-02-08T23:24:00.030Z,2.97
2023-02-08T23:29:03.631Z,2.23
2023-02-08T23:34:06.997Z,2.23
2023-02-08T23:39:11.990Z,5.00
2023-02-08T23:44:15.280Z,4.85
2023-02-08T23:49:18.682Z,2.70
2023-02-08T23:54:23.376Z,2.10
2023-02-08T23:59:26.713Z,1.80
